sensor_id;sensor_type;location;lat;lon;timestamp;pressure;altitude;pressure_sealevel;temperature;humidity
66762;BME280;53672;48.176;16.338;2023-04-20T00:02:37;99197.63;;;7.49;95.86
66762;BME280;53672;48.176;16.338;2023-04-20T00:07:37;99196.03;;;7.53;95.85
66762;BME280;53672;48.176;16.338;2023-04-20T00:12:38;99188.78;;;7.53;96.90
66762;BME280;53672;48.176;16.338;2023-04-20T00:17:40;99181.31;;;7.60;95.07
66762;BME280;53672;48.176;16.338;2023-04-20T00:22:40;99191.75;;;7.57;95.76
66762;BME280;53672;48.176;16.338;2023-04-20T00:27:41;99186.09;;;7.53;96.43
66762;BME280;53672;48.176;16.338;2023-04-20T00:32:43;99178.56;;;7.50;96.60
66762;BME280;53672;48.176;16.338;2023-04-20T00:37:43;99173.25;;;7.55;95.99
66762;BME280;53672;48.176;16.338;2023-04-20T00:42:44;99170.00;;;7.53;95.39
66762;BME280;53672;48.176;16.338;2023-04-20T00:47:46;99165.69;;;7.47;96.05
66762;BME280;53672;48.176;16.338;2023-04-20T00:52:46;99156.28;;;7.45;94.98
66762;BME280;53672;48.176;16.338;2023-04-20T00:57:47;99157.03;;;7.35;94.42
66762;BME280;53672;48.176;16.338;2023-04-20T01:02:49;99146.56;;;7.29;93.57
66762;BME280;53672;48.176;16.338;2023-04-20T01:07:50;99148.34;;;7.18;95.36
66762;BME280;53672;48.176;16.338;2023-04-20T01:12:50;99146.72;;;7.12;93.71
66762;BME280;53672;48.176;16.338;2023-04-20T01:17:52;99151.78;;;7.08;94.57
66762;BME280;53672;48.176;16.338;2023-04-20T01:22:54;99146.13;;;7.05;92.00
66762;BME280;53672;48.176;16.338;2023-04-20T01:27:54;99150.09;;;7.02;93.69
66762;BME280;53672;48.176;16.338;2023-04-20T01:32:55;99146.34;;;6.98;91.60
66762;BME280;53672;48.176;16.338;2023-04-20T01:37:57;99150.59;;;6.94;92.04
66762;BME280;53672;48.176;16.338;2023-04-20T01:42:57;99151.41;;;6.95;90.17
66762;BME280;53672;48.176;16.338;2023-04-20T01:47:59;99146.53;;;6.92;93.84
66762;BME280;53672;48.176;16.338;2023-04-20T01:53:01;99149.47;;;6.90;93.26
66762;BME280;53672;48.176;16.338;2023-04-20T01:58:02;99146.81;;;6.90;92.80
66762;BME280;53672;48.176;16.338;2023-04-20T02:03:02;99147.31;;;6.87;92.86
66762;BME280;53672;48.176;16.338;2023-04-20T02:08:04;99133.91;;;6.87;91.53
66762;BME280;53672;48.176;16.338;2023-04-20T02:13:05;99135.53;;;6.88;91.36
66762;BME280;53672;48.176;16.338;2023-04-20T02:18:05;99136.59;;;6.87;90.56
66762;BME280;53672;48.176;16.338;2023-04-20T02:23:07;99132.56;;;6.85;91.52
66762;BME280;53672;48.176;16.338;2023-04-20T02:28:08;99129.31;;;6.83;93.07
66762;BME280;53672;48.176;16.338;2023-04-20T02:33:08;99114.56;;;6.80;92.85
66762;BME280;53672;48.176;16.338;2023-04-20T02:38:10;99118.31;;;6.79;93.14
66762;BME280;53672;48.176;16.338;2023-04-20T02:43:11;99122.53;;;6.70;92.64
66762;BME280;53672;48.176;16.338;2023-04-20T02:48:12;99126.72;;;6.61;91.28
66762;BME280;53672;48.176;16.338;2023-04-20T02:53:13;99118.34;;;6.52;92.05
66762;BME280;53672;48.176;16.338;2023-04-20T02:58:14;99116.44;;;6.48;93.35
66762;BME280;53672;48.176;16.338;2023-04-20T03:03:14;99121.25;;;6.46;93.18
66762;BME280;53672;48.176;16.338;2023-04-20T03:08:16;99125.69;;;6.35;93.71
66762;BME280;53672;48.176;16.338;2023-04-20T03:13:17;99123.66;;;6.21;93.18
66762;BME280;53672;48.176;16.338;2023-04-20T03:18:17;99128.78;;;6.00;95.54
66762;BME280;53672;48.176;16.338;2023-04-20T03:23:19;99123.00;;;5.87;95.75
66762;BME280;53672;48.176;16.338;2023-04-20T03:28:20;99125.50;;;5.72;97.63
66762;BME280;53672;48.176;16.338;2023-04-20T03:33:20;99120.25;;;5.60;98.26
66762;BME280;53672;48.176;16.338;2023-04-20T03:38:22;99123.84;;;5.49;98.87
66762;BME280;53672;48.176;16.338;2023-04-20T03:43:23;99130.91;;;5.38;99.39
66762;BME280;53672;48.176;16.338;2023-04-20T03:48:23;99135.88;;;5.30;100.00
66762;BME280;53672;48.176;16.338;2023-04-20T03:53:25;99136.94;;;5.29;100.00
66762;BME280;53672;48.176;16.338;2023-04-20T03:58:26;99140.00;;;5.21;100.00
66762;BME280;53672;48.176;16.338;2023-04-20T04:03:26;99142.13;;;5.19;100.00
66762;BME280;53672;48.176;16.338;2023-04-20T04:08:28;99142.22;;;5.24;100.00
66762;BME280;53672;48.176;16.338;2023-04-20T04:13:29;99129.78;;;5.34;100.00
66762;BME280;53672;48.176;16.338;2023-04-20T04:18:30;99134.22;;;5.45;100.00
66762;BME280;53672;48.176;16.338;2023-04-20T04:23:31;99129.63;;;5.62;100.00
66762;BME280;53672;48.176;16.338;2023-04-20T04:28:32;99137.59;;;5.79;100.00
66762;BME280;53672;48.176;16.338;2023-04-20T04:33:33;99145.34;;;5.97;99.55
66762;BME280;53672;48.176;16.338;2023-04-20T04:38:35;99142.28;;;6.10;100.00
66762;BME280;53672;48.176;16.338;2023-04-20T04:43:35;99146.19;;;6.25;97.90
66762;BME280;53672;48.176;16.338;2023-04-20T04:48:36;99149.03;;;6.40;97.65
66762;BME280;53672;48.176;16.338;2023-04-20T04:53:38;99142.78;;;6.61;94.76
66762;BME280;53672;48.176;16.338;2023-04-20T04:58:39;99150.03;;;6.60;95.12
66762;BME280;53672;48.176;16.338;2023-04-20T05:03:39;99147.69;;;6.69;95.30
66762;BME280;53672;48.176;16.338;2023-04-20T05:08:41;99162.53;;;6.82;93.16
66762;BME280;53672;48.176;16.338;2023-04-20T05:13:42;99160.22;;;6.95;92.60
66762;BME280;53672;48.176;16.338;2023-04-20T05:18:42;99153.41;;;7.14;89.99
66762;BME280;53672;48.176;16.338;2023-04-20T05:23:44;99161.06;;;7.33;89.38
66762;BME280;53672;48.176;16.338;2023-04-20T05:28:45;99166.06;;;7.24;92.02
66762;BME280;53672;48.176;16.338;2023-04-20T05:33:45;99170.75;;;7.39;90.67
66762;BME280;53672;48.176;16.338;2023-04-20T05:38:47;99173.56;;;7.64;89.46
66762;BME280;53672;48.176;16.338;2023-04-20T05:43:47;99168.22;;;7.69;88.07
66762;BME280;53672;48.176;16.338;2023-04-20T05:48:48;99173.31;;;7.71;87.92
66762;BME280;53672;48.176;16.338;2023-04-20T05:53:50;99178.25;;;7.84;86.28
66762;BME280;53672;48.176;16.338;2023-04-20T05:58:50;99184.09;;;7.76;88.71
66762;BME280;53672;48.176;16.338;2023-04-20T06:03:51;99177.97;;;7.80;87.75
66762;BME280;53672;48.176;16.338;2023-04-20T06:08:53;99173.16;;;7.87;87.58
66762;BME280;53672;48.176;16.338;2023-04-20T06:13:54;99173.50;;;8.06;85.67
66762;BME280;53672;48.176;16.338;2023-04-20T06:18:54;99168.97;;;8.16;84.31
66762;BME280;53672;48.176;16.338;2023-04-20T06:23:56;99166.09;;;8.33;85.36
66762;BME280;53672;48.176;16.338;2023-04-20T06:28:56;99166.16;;;8.48;85.63
66762;BME280;53672;48.176;16.338;2023-04-20T06:33:57;99165.31;;;8.43;87.34
66762;BME280;53672;48.176;16.338;2023-04-20T06:38:59;99172.63;;;8.73;83.14
66762;BME280;53672;48.176;16.338;2023-04-20T06:43:59;99179.66;;;9.04;84.65
66762;BME280;53672;48.176;16.338;2023-04-20T06:49:00;99180.72;;;9.13;82.94
66762;BME280;53672;48.176;16.338;2023-04-20T06:54:02;99173.16;;;9.25;80.78
66762;BME280;53672;48.176;16.338;2023-04-20T06:59:02;99169.34;;;9.56;79.94
66762;BME280;53672;48.176;16.338;2023-04-20T07:04:03;99166.38;;;9.68;78.52
66762;BME280;53672;48.176;16.338;2023-04-20T07:09:04;99172.16;;;10.15;74.39
66762;BME280;53672;48.176;16.338;2023-04-20T07:14:05;99187.06;;;9.83;78.70
66762;BME280;53672;48.176;16.338;2023-04-20T07:19:05;99186.78;;;9.84;75.37
66762;BME280;53672;48.176;16.338;2023-04-20T07:24:07;99191.63;;;9.77;79.89
66762;BME280;53672;48.176;16.338;2023-04-20T07:29:08;99182.16;;;10.59;75.25
66762;BME280;53672;48.176;16.338;2023-04-20T07:34:08;99193.19;;;11.01;73.43
66762;BME280;53672;48.176;16.338;2023-04-20T07:39:10;99189.84;;;10.76;70.10
66762;BME280;53672;48.176;16.338;2023-04-20T07:44:11;99193.75;;;10.98;72.81
66762;BME280;53672;48.176;16.338;2023-04-20T07:49:12;99198.25;;;10.74;73.16
66762;BME280;53672;48.176;16.338;2023-04-20T07:54:13;99196.38;;;10.69;72.16
66762;BME280;53672;48.176;16.338;2023-04-20T07:59:14;99202.91;;;11.02;72.22
66762;BME280;53672;48.176;16.338;2023-04-20T08:04:14;99202.31;;;10.72;72.80
66762;BME280;53672;48.176;16.338;2023-04-20T08:09:16;99203.13;;;11.97;70.16
66762;BME280;53672;48.176;16.338;2023-04-20T08:14:17;99194.09;;;12.49;68.83
66762;BME280;53672;48.176;16.338;2023-04-20T08:19:17;99201.41;;;12.49;63.71
66762;BME280;53672;48.176;16.338;2023-04-20T08:24:19;99194.00;;;12.54;62.19
66762;BME280;53672;48.176;16.338;2023-04-20T08:29:20;99195.94;;;12.11;67.56
66762;BME280;53672;48.176;16.338;2023-04-20T08:34:20;99192.69;;;14.00;62.05
66762;BME280;53672;48.176;16.338;2023-04-20T08:39:22;99189.72;;;17.23;50.45
66762;BME280;53672;48.176;16.338;2023-04-20T08:44:23;99193.25;;;17.32;48.38
66762;BME280;53672;48.176;16.338;2023-04-20T08:49:26;99196.09;;;16.50;49.35
66762;BME280;53672;48.176;16.338;2023-04-20T08:54:28;99193.84;;;14.76;57.08
66762;BME280;53672;48.176;16.338;2023-04-20T08:59:29;99195.50;;;17.13;51.64
66762;BME280;53672;48.176;16.338;2023-04-20T09:04:30;99191.88;;;20.97;40.57
66762;BME280;53672;48.176;16.338;2023-04-20T09:09:32;99192.34;;;23.38;35.33
66762;BME280;53672;48.176;16.338;2023-04-20T09:14:41;99189.44;;;26.41;30.70
66762;BME280;53672;48.176;16.338;2023-04-20T09:19:43;99189.47;;;27.13;25.89
66762;BME280;53672;48.176;16.338;2023-04-20T09:24:45;99180.19;;;23.81;33.24
66762;BME280;53672;48.176;16.338;2023-04-20T09:29:55;99176.53;;;22.27;36.22
66762;BME280;53672;48.176;16.338;2023-04-20T09:34:56;99174.94;;;26.58;30.74
66762;BME280;53672;48.176;16.338;2023-04-20T09:39:59;99163.38;;;27.07;28.63
66762;BME280;53672;48.176;16.338;2023-04-20T09:45:00;99161.91;;;29.73;27.28
66762;BME280;53672;48.176;16.338;2023-04-20T09:50:01;99161.66;;;28.06;27.80
66762;BME280;53672;48.176;16.338;2023-04-20T09:55:06;99157.13;;;27.35;30.01
66762;BME280;53672;48.176;16.338;2023-04-20T10:00:07;99153.13;;;29.09;25.03
66762;BME280;53672;48.176;16.338;2023-04-20T10:05:08;99151.22;;;27.33;27.51
66762;BME280;53672;48.176;16.338;2023-04-20T10:10:11;99145.75;;;25.65;30.43
66762;BME280;53672;48.176;16.338;2023-04-20T10:15:12;99150.41;;;27.29;30.43
66762;BME280;53672;48.176;16.338;2023-04-20T10:20:21;99143.38;;;27.49;27.99
66762;BME280;53672;48.176;16.338;2023-04-20T10:25:24;99140.69;;;25.71;29.34
66762;BME280;53672;48.176;16.338;2023-04-20T10:30:26;99138.06;;;25.11;34.19
66762;BME280;53672;48.176;16.338;2023-04-20T10:35:27;99128.69;;;23.39;34.62
66762;BME280;53672;48.176;16.338;2023-04-20T10:40:29;99132.44;;;23.08;37.03
66762;BME280;53672;48.176;16.338;2023-04-20T10:45:33;99120.88;;;23.18;34.05
66762;BME280;53672;48.176;16.338;2023-04-20T10:50:34;99109.28;;;23.97;32.86
66762;BME280;53672;48.176;16.338;2023-04-20T10:55:36;99095.56;;;22.01;36.41
66762;BME280;53672;48.176;16.338;2023-04-20T11:00:36;99086.84;;;21.21;37.11
66762;BME280;53672;48.176;16.338;2023-04-20T11:05:37;99091.66;;;23.52;32.81
66762;BME280;53672;48.176;16.338;2023-04-20T11:10:39;99087.88;;;25.36;32.22
66762;BME280;53672;48.176;16.338;2023-04-20T11:15:40;99085.84;;;26.20;30.05
66762;BME280;53672;48.176;16.338;2023-04-20T11:20:49;99077.38;;;24.78;33.63
66762;BME280;53672;48.176;16.338;2023-04-20T11:25:52;99085.84;;;26.93;27.93
66762;BME280;53672;48.176;16.338;2023-04-20T11:30:53;99084.66;;;25.27;33.33
66762;BME280;53672;48.176;16.338;2023-04-20T11:35:54;99087.78;;;25.65;31.49
66762;BME280;53672;48.176;16.338;2023-04-20T11:40:56;99082.47;;;27.66;30.14
66762;BME280;53672;48.176;16.338;2023-04-20T11:45:57;99073.69;;;23.85;32.67
66762;BME280;53672;48.176;16.338;2023-04-20T11:50:58;99076.25;;;25.53;31.03
66762;BME280;53672;48.176;16.338;2023-04-20T11:56:00;99080.19;;;26.71;27.68
66762;BME280;53672;48.176;16.338;2023-04-20T12:01:01;99076.72;;;25.65;30.14
66762;BME280;53672;48.176;16.338;2023-04-20T12:06:01;99065.34;;;23.55;32.07
66762;BME280;53672;48.176;16.338;2023-04-20T12:11:03;99061.59;;;22.25;39.61
66762;BME280;53672;48.176;16.338;2023-04-20T12:16:05;99054.88;;;20.69;38.04
66762;BME280;53672;48.176;16.338;2023-04-20T12:21:06;99056.97;;;22.29;37.68
66762;BME280;53672;48.176;16.338;2023-04-20T12:26:08;99051.75;;;20.03;39.20
66762;BME280;53672;48.176;16.338;2023-04-20T12:31:08;99052.72;;;20.23;40.33
66762;BME280;53672;48.176;16.338;2023-04-20T12:36:09;99051.75;;;20.03;41.14
66762;BME280;53672;48.176;16.338;2023-04-20T12:41:13;99042.47;;;20.08;44.43
66762;BME280;53672;48.176;16.338;2023-04-20T12:46:14;99045.59;;;19.82;40.69
66762;BME280;53672;48.176;16.338;2023-04-20T12:51:14;99038.09;;;19.79;41.27
66762;BME280;53672;48.176;16.338;2023-04-20T12:56:16;99039.19;;;20.02;40.22
66762;BME280;53672;48.176;16.338;2023-04-20T13:01:16;99027.56;;;18.88;43.96
66762;BME280;53672;48.176;16.338;2023-04-20T13:06:17;99030.91;;;19.05;41.73
66762;BME280;53672;48.176;16.338;2023-04-20T13:11:19;99015.06;;;19.44;40.81
66762;BME280;53672;48.176;16.338;2023-04-20T13:16:19;99021.31;;;18.54;44.11
66762;BME280;53672;48.176;16.338;2023-04-20T13:21:20;99019.31;;;18.43;44.59
66762;BME280;53672;48.176;16.338;2023-04-20T13:26:22;99028.09;;;17.10;46.96
66762;BME280;53672;48.176;16.338;2023-04-20T13:31:23;99029.63;;;17.29;47.50
66762;BME280;53672;48.176;16.338;2023-04-20T13:36:24;99004.25;;;16.99;47.99
66762;BME280;53672;48.176;16.338;2023-04-20T13:41:26;99013.13;;;18.54;44.90
66762;BME280;53672;48.176;16.338;2023-04-20T13:46:26;99009.41;;;18.38;47.36
66762;BME280;53672;48.176;16.338;2023-04-20T13:51:27;99007.09;;;17.49;48.07
66762;BME280;53672;48.176;16.338;2023-04-20T13:56:29;99005.56;;;16.93;49.49
66762;BME280;53672;48.176;16.338;2023-04-20T14:01:29;99004.88;;;17.04;49.81
66762;BME280;53672;48.176;16.338;2023-04-20T14:06:30;99006.16;;;17.07;50.25
66762;BME280;53672;48.176;16.338;2023-04-20T14:11:31;98992.16;;;17.55;49.46
66762;BME280;53672;48.176;16.338;2023-04-20T14:16:32;98992.53;;;17.07;48.24
66762;BME280;53672;48.176;16.338;2023-04-20T14:21:32;98987.81;;;16.87;49.76
66762;BME280;53672;48.176;16.338;2023-04-20T14:26:34;98982.53;;;17.19;48.55
66762;BME280;53672;48.176;16.338;2023-04-20T14:31:35;98983.84;;;17.22;48.66
66762;BME280;53672;48.176;16.338;2023-04-20T14:36:35;98985.63;;;17.47;47.67
66762;BME280;53672;48.176;16.338;2023-04-20T14:41:37;98992.31;;;17.20;49.09
66762;BME280;53672;48.176;16.338;2023-04-20T14:46:38;98980.94;;;16.81;51.40
66762;BME280;53672;48.176;16.338;2023-04-20T14:51:39;98986.06;;;17.58;49.61
66762;BME280;53672;48.176;16.338;2023-04-20T14:56:41;98988.56;;;16.96;49.66
66762;BME280;53672;48.176;16.338;2023-04-20T15:01:41;98987.19;;;16.81;49.05
66762;BME280;53672;48.176;16.338;2023-04-20T15:06:42;98977.63;;;16.32;51.52
66762;BME280;53672;48.176;16.338;2023-04-20T15:11:43;98987.22;;;16.55;51.28
66762;BME280;53672;48.176;16.338;2023-04-20T15:16:44;98986.88;;;16.48;50.73
66762;BME280;53672;48.176;16.338;2023-04-20T15:21:44;98982.59;;;16.56;51.24
66762;BME280;53672;48.176;16.338;2023-04-20T15:26:46;98986.94;;;16.57;51.79
66762;BME280;53672;48.176;16.338;2023-04-20T15:31:47;98979.06;;;16.64;50.45
66762;BME280;53672;48.176;16.338;2023-04-20T15:36:47;98978.13;;;16.60;51.06
66762;BME280;53672;48.176;16.338;2023-04-20T15:41:49;98974.59;;;16.08;53.44
66762;BME280;53672;48.176;16.338;2023-04-20T15:46:50;98973.00;;;15.90;52.96
66762;BME280;53672;48.176;16.338;2023-04-20T15:51:50;98975.22;;;15.96;52.81
66762;BME280;53672;48.176;16.338;2023-04-20T15:56:52;98968.66;;;15.80;56.33
66762;BME280;53672;48.176;16.338;2023-04-20T16:01:53;98968.97;;;15.61;55.98
66762;BME280;53672;48.176;16.338;2023-04-20T16:06:53;98967.88;;;15.71;54.41
66762;BME280;53672;48.176;16.338;2023-04-20T16:11:55;98970.09;;;15.60;54.82
66762;BME280;53672;48.176;16.338;2023-04-20T16:16:59;98965.63;;;15.64;54.69
66762;BME280;53672;48.176;16.338;2023-04-20T16:22:00;98962.28;;;15.67;55.80
66762;BME280;53672;48.176;16.338;2023-04-20T16:27:02;98966.09;;;15.58;56.63
66762;BME280;53672;48.176;16.338;2023-04-20T16:32:02;98959.03;;;15.48;56.60
66762;BME280;53672;48.176;16.338;2023-04-20T16:37:03;98963.03;;;15.59;55.81
66762;BME280;53672;48.176;16.338;2023-04-20T16:42:04;98967.91;;;15.32;56.13
66762;BME280;53672;48.176;16.338;2023-04-20T16:47:05;98966.03;;;15.41;56.56
66762;BME280;53672;48.176;16.338;2023-04-20T16:52:05;98963.53;;;15.13;57.52
66762;BME280;53672;48.176;16.338;2023-04-20T16:57:07;98969.56;;;15.02;58.71
66762;BME280;53672;48.176;16.338;2023-04-20T17:02:08;98965.88;;;14.98;59.49
66762;BME280;53672;48.176;16.338;2023-04-20T17:07:08;98965.69;;;14.94;60.02
66762;BME280;53672;48.176;16.338;2023-04-20T17:12:10;98970.94;;;14.91;60.85
66762;BME280;53672;48.176;16.338;2023-04-20T17:17:10;98969.31;;;14.81;61.47
66762;BME280;53672;48.176;16.338;2023-04-20T17:22:11;98975.19;;;14.75;61.42
66762;BME280;53672;48.176;16.338;2023-04-20T17:27:13;98979.25;;;14.63;61.61
66762;BME280;53672;48.176;16.338;2023-04-20T17:32:13;98976.31;;;14.51;62.24
66762;BME280;53672;48.176;16.338;2023-04-20T17:37:14;98991.91;;;14.46;62.40
66762;BME280;53672;48.176;16.338;2023-04-20T17:42:16;98991.66;;;14.34;63.44
66762;BME280;53672;48.176;16.338;2023-04-20T17:47:17;98990.59;;;14.21;64.15
66762;BME280;53672;48.176;16.338;2023-04-20T17:52:17;98992.13;;;14.13;64.51
66762;BME280;53672;48.176;16.338;2023-04-20T17:57:19;98993.34;;;14.07;64.39
66762;BME280;53672;48.176;16.338;2023-04-20T18:02:21;98997.88;;;13.98;64.88
66762;BME280;53672;48.176;16.338;2023-04-20T18:07:22;98997.44;;;13.83;66.54
66762;BME280;53672;48.176;16.338;2023-04-20T18:12:24;99006.00;;;13.62;67.62
66762;BME280;53672;48.176;16.338;2023-04-20T18:17:25;99011.13;;;13.50;67.05
66762;BME280;53672;48.176;16.338;2023-04-20T18:22:26;99019.84;;;13.34;68.14
66762;BME280;53672;48.176;16.338;2023-04-20T18:27:27;99016.72;;;13.27;68.49
66762;BME280;53672;48.176;16.338;2023-04-20T18:32:28;99026.00;;;13.07;68.97
66762;BME280;53672;48.176;16.338;2023-04-20T18:37:29;99035.72;;;12.94;70.49
66762;BME280;53672;48.176;16.338;2023-04-20T18:42:32;99039.81;;;13.05;72.04
66762;BME280;53672;48.176;16.338;2023-04-20T18:47:33;99051.09;;;13.12;69.97
66762;BME280;53672;48.176;16.338;2023-04-20T18:52:34;99050.81;;;13.14;69.66
66762;BME280;53672;48.176;16.338;2023-04-20T18:57:36;99055.16;;;12.96;70.38
66762;BME280;53672;48.176;16.338;2023-04-20T19:02:37;99057.63;;;12.79;70.61
66762;BME280;53672;48.176;16.338;2023-04-20T19:07:39;99061.09;;;12.66;71.56
66762;BME280;53672;48.176;16.338;2023-04-20T19:12:42;99052.81;;;12.57;72.00
66762;BME280;53672;48.176;16.338;2023-04-20T19:17:43;99059.25;;;12.61;71.22
66762;BME280;53672;48.176;16.338;2023-04-20T19:22:43;99067.13;;;12.77;70.87
66762;BME280;53672;48.176;16.338;2023-04-20T19:27:46;99060.56;;;12.64;71.50
66762;BME280;53672;48.176;16.338;2023-04-20T19:32:47;99067.03;;;12.49;71.47
66762;BME280;53672;48.176;16.338;2023-04-20T19:37:48;99071.06;;;12.14;73.63
66762;BME280;53672;48.176;16.338;2023-04-20T19:42:50;99069.94;;;11.97;74.95
66762;BME280;53672;48.176;16.338;2023-04-20T19:47:51;99073.66;;;11.82;75.79
66762;BME280;53672;48.176;16.338;2023-04-20T19:52:52;99070.50;;;11.75;76.67
66762;BME280;53672;48.176;16.338;2023-04-20T19:57:55;99070.94;;;11.58;78.01
66762;BME280;53672;48.176;16.338;2023-04-20T20:02:56;99080.94;;;11.34;79.71
66762;BME280;53672;48.176;16.338;2023-04-20T20:07:56;99089.47;;;11.17;81.41
66762;BME280;53672;48.176;16.338;2023-04-20T20:12:58;99083.44;;;11.02;82.93
66762;BME280;53672;48.176;16.338;2023-04-20T20:17:58;99082.47;;;10.88;84.96
66762;BME280;53672;48.176;16.338;2023-04-20T20:23:00;99086.16;;;10.68;85.98
66762;BME280;53672;48.176;16.338;2023-04-20T20:28:01;99074.09;;;10.55;87.11
66762;BME280;53672;48.176;16.338;2023-04-20T20:33:02;99083.38;;;10.44;88.37
66762;BME280;53672;48.176;16.338;2023-04-20T20:38:03;99068.09;;;10.30;89.35
66762;BME280;53672;48.176;16.338;2023-04-20T20:43:04;99079.19;;;10.23;91.28
66762;BME280;53672;48.176;16.338;2023-04-20T20:48:05;99076.28;;;10.14;91.36
66762;BME280;53672;48.176;16.338;2023-04-20T20:53:06;99074.69;;;10.03;92.45
66762;BME280;53672;48.176;16.338;2023-04-20T20:58:07;99076.34;;;9.99;92.51
66762;BME280;53672;48.176;16.338;2023-04-20T21:03:08;99069.66;;;9.87;93.54
66762;BME280;53672;48.176;16.338;2023-04-20T21:08:08;99078.59;;;9.82;94.55
66762;BME280;53672;48.176;16.338;2023-04-20T21:13:10;99077.00;;;9.71;94.92
66762;BME280;53672;48.176;16.338;2023-04-20T21:18:11;99071.69;;;9.61;95.45
66762;BME280;53672;48.176;16.338;2023-04-20T21:23:11;99076.53;;;9.54;95.83
66762;BME280;53672;48.176;16.338;2023-04-20T21:28:13;99076.03;;;9.47;96.03
66762;BME280;53672;48.176;16.338;2023-04-20T21:33:13;99079.81;;;9.36;96.94
66762;BME280;53672;48.176;16.338;2023-04-20T21:38:14;99086.56;;;9.28;97.82
66762;BME280;53672;48.176;16.338;2023-04-20T21:43:16;99090.34;;;9.22;98.85
66762;BME280;53672;48.176;16.338;2023-04-20T21:48:16;99086.88;;;9.11;98.88
66762;BME280;53672;48.176;16.338;2023-04-20T21:53:17;99089.28;;;9.08;99.13
66762;BME280;53672;48.176;16.338;2023-04-20T21:58:19;99096.31;;;8.99;100.00
66762;BME280;53672;48.176;16.338;2023-04-20T22:03:19;99103.56;;;8.88;100.00
66762;BME280;53672;48.176;16.338;2023-04-20T22:08:20;99098.19;;;8.78;100.00
66762;BME280;53672;48.176;16.338;2023-04-20T22:13:21;99101.41;;;8.70;100.00
66762;BME280;53672;48.176;16.338;2023-04-20T22:18:22;99101.94;;;8.57;100.00
66762;BME280;53672;48.176;16.338;2023-04-20T22:23:23;99111.63;;;8.58;100.00
66762;BME280;53672;48.176;16.338;2023-04-20T22:28:24;99107.59;;;8.60;100.00
66762;BME280;53672;48.176;16.338;2023-04-20T22:33:25;99116.72;;;8.54;100.00
66762;BME280;53672;48.176;16.338;2023-04-20T22:38:25;99106.50;;;8.46;100.00
66762;BME280;53672;48.176;16.338;2023-04-20T22:43:27;99104.91;;;8.35;100.00
66762;BME280;53672;48.176;16.338;2023-04-20T22:48:28;99109.44;;;8.30;100.00
66762;BME280;53672;48.176;16.338;2023-04-20T22:53:28;99120.69;;;8.22;100.00
66762;BME280;53672;48.176;16.338;2023-04-20T22:58:30;99117.72;;;8.18;100.00
66762;BME280;53672;48.176;16.338;2023-04-20T23:03:31;99127.59;;;8.02;100.00
66762;BME280;53672;48.176;16.338;2023-04-20T23:08:31;99117.38;;;7.99;100.00
66762;BME280;53672;48.176;16.338;2023-04-20T23:13:33;99119.25;;;7.94;100.00
66762;BME280;53672;48.176;16.338;2023-04-20T23:18:33;99111.44;;;7.92;100.00
66762;BME280;53672;48.176;16.338;2023-04-20T23:23:34;99117.34;;;7.89;100.00
66762;BME280;53672;48.176;16.338;2023-04-20T23:28:36;99113.03;;;7.88;100.00
66762;BME280;53672;48.176;16.338;2023-04-20T23:33:36;99112.81;;;8.00;100.00
66762;BME280;53672;48.176;16.338;2023-04-20T23:38:37;99116.59;;;8.09;100.00
66762;BME280;53672;48.176;16.338;2023-04-20T23:43:39;99116.09;;;8.17;100.00
66762;BME280;53672;48.176;16.338;2023-04-20T23:48:40;99122.25;;;8.12;100.00
66762;BME280;53672;48.176;16.338;2023-04-20T23:53:41;99112.28;;;8.03;100.00
66762;BME280;53672;48.176;16.338;2023-04-20T23:58:43;99110.38;;;7.93;100.00
